Time;durP1;ratioP1;P1;durP2;ratioP2;P2;SDS_P1;SDS_P2;PMS_P1;PMS_P2;Temp;Humidity;BMP_temperature;BMP_pressure;BME280_temperature;BME280_humidity;BME280_pressure;Samples;Min_cycle;Max_cycle;Signal;HPM_P1;HPM_P2
2021/12/19 00:00:49;;;;;;;36.08;21.20;;;;;;;-0.24;100.00;102243.28;4995909;28;20053;-78
2021/12/19 00:08:50;;;;;;;41.03;21.33;;;;;;;-0.36;100.00;102240.91;4996401;28;20050;-78
2021/12/19 00:11:23;;;;;;;;;;;;;;;-0.43;100.00;102229.16;4989282;28;20039;-78
2021/12/19 00:13:51;;;;;;;43.30;21.05;;;;;;;-0.52;100.00;102236.34;4978593;28;19926;-78
2021/12/19 00:16:20;;;;;;;40.40;21.42;;;;;;;-0.25;100.00;102228.16;4995445;28;20504;-78
2021/12/19 00:18:50;;;;;;;47.25;22.52;;;;;;;-0.28;100.00;102222.09;4995094;28;20050;-78
2021/12/19 00:21:20;;;;;;;48.13;23.15;;;;;;;-0.21;100.00;102232.19;4995679;28;20054;-78
2021/12/19 00:23:50;;;;;;;48.72;22.40;;;;;;;-0.39;100.00;102208.13;4995705;28;20054;-78
2021/12/19 00:26:18;;;;;;;39.40;21.52;;;;;;;-0.44;100.00;102204.09;4995506;28;20051;-78
2021/12/19 00:28:48;;;;;;;43.80;20.88;;;;;;;-0.48;100.00;102196.53;4995088;28;20045;-77
2021/12/19 00:31:16;;;;;;;37.70;20.52;;;;;;;-0.43;100.00;102196.88;4986642;28;20069;-78
2021/12/19 00:33:45;;;;;;;44.38;22.55;;;;;;;-0.18;100.00;102202.25;4993945;28;20043;-78
2021/12/19 00:36:13;;;;;;;42.75;22.05;;;;;;;-0.22;100.00;102193.69;4991559;28;20038;-78
2021/12/19 00:38:41;;;;;;;42.70;23.25;;;;;;;-0.03;100.00;102192.50;4991787;28;20050;-78
2021/12/19 00:41:10;;;;;;;41.45;21.80;;;;;;;0.11;100.00;102188.28;5007610;28;20497;-78
2021/12/19 00:43:47;;;;;;;44.45;22.48;;;;;;;0.11;100.00;102179.38;4995105;28;20516;-78
2021/12/19 00:46:16;;;;;;;41.88;23.35;;;;;;;0.03;100.00;102171.28;4983133;28;20053;-78
2021/12/19 00:48:47;;;;;;;39.33;22.15;;;;;;;0.18;100.00;102172.28;4995429;28;20050;-79
2021/12/19 00:51:18;;;;;;;37.85;21.83;;;;;;;0.24;100.00;102159.97;4995118;28;20057;-78
2021/12/19 00:53:46;;;;;;;49.42;23.85;;;;;;;0.12;100.00;102164.91;4978005;28;20042;-78
2021/12/19 00:56:14;;;;;;;45.78;23.67;;;;;;;0.11;100.00;102174.81;4994857;28;20046;-78
2021/12/19 00:58:44;;;;;;;41.33;21.27;;;;;;;0.04;100.00;102154.16;4977176;28;20061;-78
2021/12/19 01:01:13;;;;;;;39.30;21.65;;;;;;;0.01;100.00;102170.63;4995058;28;20412;-78
2021/12/19 01:03:44;;;;;;;41.17;22.55;;;;;;;0.17;100.00;102159.84;4995170;28;20504;-78
2021/12/19 01:06:13;;;;;;;44.63;22.00;;;;;;;-0.04;100.00;102161.19;4998457;28;20396;-78
2021/12/19 01:08:41;;;;;;;40.60;22.02;;;;;;;0.10;100.00;102164.22;5003908;28;20049;-78
2021/12/19 01:11:10;;;;;;;47.40;23.95;;;;;;;-0.04;100.00;102155.00;4977439;28;20054;-78
2021/12/19 01:13:38;;;;;;;38.75;21.98;;;;;;;-0.08;100.00;102159.88;4994820;28;20047;-78
2021/12/19 01:16:06;;;;;;;40.95;22.23;;;;;;;-0.01;100.00;102160.03;4994646;28;20054;-78
2021/12/19 01:18:34;;;;;;;43.10;22.65;;;;;;;-0.14;100.00;102147.09;4994445;28;20065;-78
2021/12/19 01:21:03;;;;;;;40.38;22.08;;;;;;;-0.16;100.00;102163.41;4994538;28;20038;-79
2021/12/19 01:23:31;;;;;;;40.28;22.45;;;;;;;-0.12;100.00;102157.69;4977351;28;20057;-78
2021/12/19 01:25:59;;;;;;;45.30;22.55;;;;;;;-0.06;100.00;102160.53;4993852;28;20061;-78
2021/12/19 01:28:27;;;;;;;39.08;22.83;;;;;;;-0.18;100.00;102151.13;4994492;28;20481;-78
2021/12/19 01:30:55;;;;;;;43.35;22.75;;;;;;;-0.17;100.00;102150.97;4994518;28;20050;-78
2021/12/19 01:33:23;;;;;;;50.17;24.73;;;;;;;-0.13;100.00;102148.78;4994405;28;20054;-78
2021/12/19 01:35:51;;;;;;;49.70;22.88;;;;;;;-0.07;100.00;102141.88;4994124;28;20053;-78
2021/12/19 01:38:19;;;;;;;42.33;22.77;;;;;;;0.05;100.00;102143.19;4976384;28;20053;-78
2021/12/19 01:40:47;;;;;;;54.22;23.42;;;;;;;0.11;100.00;102157.84;4994117;28;20046;-78
2021/12/19 01:43:24;;;;;;;46.50;24.00;;;;;;;0.27;100.00;102154.25;4994035;28;20441;-78
2021/12/19 01:45:53;;;;;;;44.00;23.73;;;;;;;0.23;100.00;102151.06;4993525;28;20393;-78
2021/12/19 01:48:22;;;;;;;51.35;24.98;;;;;;;0.30;100.00;102147.69;4976773;28;20080;-78
2021/12/19 01:50:52;;;;;;;48.92;24.98;;;;;;;0.36;100.00;102147.84;4993972;28;20051;-78
2021/12/19 01:53:20;;;;;;;47.28;25.02;;;;;;;0.26;100.00;102142.63;4976485;28;20058;-78
2021/12/19 01:55:49;;;;;;;48.05;23.10;;;;;;;0.18;100.00;102133.75;4993320;28;20042;-78
2021/12/19 01:58:18;;;;;;;51.92;25.08;;;;;;;0.21;100.00;102133.41;4975297;28;20053;-78
2021/12/19 02:00:52;;;;;;;44.67;22.92;;;;;;;0.19;100.00;102130.06;4989110;28;20050;-78
2021/12/19 02:03:21;;;;;;;44.80;23.83;;;;;;;0.26;100.00;102133.75;4993778;28;20073;-79
2021/12/19 02:05:50;;;;;;;45.92;23.70;;;;;;;0.20;100.00;102137.94;4974351;28;20378;-78
2021/12/19 02:08:19;;;;;;;48.42;24.73;;;;;;;0.18;100.00;102142.66;4987355;28;20512;-78
2021/12/19 02:10:47;;;;;;;43.25;23.65;;;;;;;0.11;100.00;102130.91;4993591;28;20042;-78
2021/12/19 02:13:16;;;;;;;43.28;24.25;;;;;;;0.11;100.00;102125.53;4993808;28;20042;-78
2021/12/19 02:15:45;;;;;;;53.80;23.20;;;;;;;0.15;100.00;102126.88;4976089;28;20050;-78
2021/12/19 02:18:16;;;;;;;49.05;23.85;;;;;;;0.17;100.00;102129.38;4993071;28;20046;-79
2021/12/19 02:20:50;;;;;;;39.13;21.42;;;;;;;-0.02;100.00;102128.75;4993406;28;20047;-78
2021/12/19 02:23:20;;;;;;;52.75;24.88;;;;;;;-0.02;100.00;102118.81;4992661;28;20405;-78
2021/12/19 02:25:49;;;;;;;50.15;24.60;;;;;;;0.04;100.00;102116.47;4993202;28;20050;-78
2021/12/19 02:28:18;;;;;;;47.55;26.23;;;;;;;-0.03;100.00;102108.22;4993342;28;20042;-78
2021/12/19 02:30:47;;;;;;;53.92;24.73;;;;;;;0.01;100.00;102111.41;4993092;28;20053;-78
2021/12/19 02:33:20;;;;;;;51.70;24.27;;;;;;;0.13;100.00;102105.50;4993213;28;20405;-78
2021/12/19 02:35:58;;;;;;;49.20;25.50;;;;;;;0.16;100.00;102109.69;4993087;28;20042;-78
2021/12/19 02:39:17;;;;;;;44.28;22.73;;;;;;;0.13;100.00;102097.44;4974919;28;20054;-78
2021/12/19 02:49:46;;;;;;;45.70;23.02;;;;;;;0.19;100.00;102079.72;4986299;28;20046;-78
2021/12/19 02:52:16;;;;;;;43.88;23.83;;;;;;;0.11;100.00;102077.06;4992886;28;20366;-78
2021/12/19 02:54:44;;;;;;;41.75;22.92;;;;;;;0.16;100.00;102082.78;4992997;28;20046;-78
2021/12/19 02:57:12;;;;;;;49.35;23.08;;;;;;;0.19;100.00;102077.03;4992156;28;20042;-78
2021/12/19 02:59:40;;;;;;;47.08;23.83;;;;;;;0.19;100.00;102071.66;4961265;28;20518;-78
2021/12/19 03:02:08;;;;;;;47.55;23.45;;;;;;;0.14;100.00;102065.94;4992760;28;20050;-78
2021/12/19 03:04:36;;;;;;;53.80;25.70;;;;;;;0.12;100.00;102070.66;4969600;28;20043;-78
2021/12/19 03:07:05;;;;;;;43.78;21.83;;;;;;;0.20;100.00;102076.00;4992847;28;20057;-78
2021/12/19 03:12:11;;;;;;;44.90;22.00;;;;;;;0.23;100.00;102062.22;4992791;28;20405;-78
2021/12/19 03:20:14;;;;;;;52.72;22.38;;;;;;;0.10;100.00;102052.00;4980326;28;20046;-78
2021/12/19 03:22:42;;;;;;;41.80;20.60;;;;;;;-0.01;100.00;102065.81;4992785;28;20047;-78
2021/12/19 03:25:10;;;;;;;43.88;23.08;;;;;;;-0.03;100.00;102047.16;4992504;28;20085;-78
2021/12/19 03:27:38;;;;;;;42.35;21.52;;;;;;;-0.14;100.00;102050.22;4992731;28;20058;-78
2021/12/19 03:30:07;;;;;;;50.45;23.00;;;;;;;-0.11;100.00;102057.94;4992503;28;20062;-78
2021/12/19 03:32:36;;;;;;;43.40;22.33;;;;;;;-0.10;100.00;102056.09;4992553;28;20050;-78
2021/12/19 03:35:06;;;;;;;44.08;23.13;;;;;;;-0.15;100.00;102057.44;4992605;28;20061;-78
2021/12/19 03:37:41;;;;;;;45.97;21.52;;;;;;;-0.20;100.00;102046.34;4975067;28;20038;-78
2021/12/19 03:40:12;;;;;;;49.30;21.50;;;;;;;-0.13;100.00;102049.22;4989675;28;20485;-78
2021/12/19 03:42:46;;;;;;;44.80;22.88;;;;;;;-0.15;100.00;102046.69;4992835;28;20478;-78
2021/12/19 03:45:17;;;;;;;37.90;20.67;;;;;;;-0.18;100.00;102024.66;4974764;28;20054;-78
2021/12/19 03:47:46;;;;;;;38.47;20.88;;;;;;;-0.43;100.00;102040.84;4992476;28;20042;-78
2021/12/19 03:50:20;;;;;;;41.05;20.17;;;;;;;-0.41;100.00;102034.28;4992381;28;20042;-78
2021/12/19 03:52:50;;;;;;;44.77;20.97;;;;;;;-0.43;100.00;102038.16;4992587;28;20042;-78
2021/12/19 03:55:18;;;;;;;48.97;20.90;;;;;;;-0.60;100.00;102022.03;4992383;28;20312;-78
2021/12/19 03:57:46;;;;;;;38.75;20.30;;;;;;;-0.62;100.00;102026.75;4992195;28;20041;-78
2021/12/19 04:00:17;;;;;;;44.85;21.05;;;;;;;-0.46;100.00;102038.50;4974744;28;20061;-78
2021/12/19 04:02:47;;;;;;;41.45;21.35;;;;;;;-0.60;100.00;102030.09;4992305;28;20047;-78
2021/12/19 04:05:15;;;;;;;38.67;19.75;;;;;;;-0.56;100.00;102036.84;4973941;28;20062;-78
2021/12/19 04:07:43;;;;;;;45.55;21.00;;;;;;;-0.57;100.00;102039.69;4992437;28;20500;-78
2021/12/19 04:10:12;;;;;;;41.83;21.13;;;;;;;-0.66;100.00;102030.78;4995992;28;20416;-78
2021/12/19 04:12:42;;;;;;;43.53;19.40;;;;;;;-0.67;100.00;102031.81;4995931;28;20489;-78
2021/12/19 04:15:12;;;;;;;41.45;20.02;;;;;;;-0.59;100.00;102031.78;4982295;28;20043;-78
2021/12/19 04:17:40;;;;;;;48.97;20.85;;;;;;;-0.64;100.00;102027.94;4989874;28;20054;-78
2021/12/19 04:20:11;;;;;;;42.33;20.50;;;;;;;-0.70;100.00;102014.16;4994049;28;20053;-78
2021/12/19 04:22:39;;;;;;;42.78;20.45;;;;;;;-0.62;100.00;102024.06;4995961;28;20043;-78
2021/12/19 04:25:07;;;;;;;43.80;20.88;;;;;;;-0.61;100.00;102017.69;4995415;28;20050;-78
2021/12/19 04:27:36;;;;;;;41.58;22.23;;;;;;;-0.68;100.00;102019.38;4990752;28;20042;-78
2021/12/19 04:30:07;;;;;;;42.67;21.17;;;;;;;-0.69;100.00;102029.28;4995461;28;20057;-78
2021/12/19 04:32:40;;;;;;;47.03;20.83;;;;;;;-0.76;100.00;102022.91;4995532;28;20038;-78
2021/12/19 04:35:10;;;;;;;47.72;21.83;;;;;;;-0.77;100.00;102023.91;4995539;28;20504;-78
2021/12/19 04:40:20;;;;;;;43.60;20.67;;;;;;;-0.71;100.00;102009.78;4977734;28;20054;-77
2021/12/19 04:43:56;;;;;;;45.97;22.75;;;;;;;-0.66;100.00;102013.81;4995446;28;20489;-78
2021/12/19 04:51:37;;;;;;;53.22;21.38;;;;;;;-0.56;100.00;101993.81;4964336;28;20050;-78
2021/12/19 05:15:44;;;;;;;38.22;20.88;;;;;;;-0.54;100.00;101985.53;4986565;28;20046;-78
2021/12/19 05:18:13;;;;;;;43.60;21.25;;;;;;;-0.55;100.00;101986.56;4993961;28;20067;-78
2021/12/19 05:20:53;;;;;;;40.88;21.10;;;;;;;-0.60;100.00;101973.63;4993961;28;20062;-78
2021/12/19 05:23:38;;;;;;;45.58;21.25;;;;;;;-0.52;100.00;101967.41;4994432;28;20046;-78
2021/12/19 05:26:07;;;;;;;45.78;21.65;;;;;;;-0.61;100.00;101969.28;4994584;28;20046;-78
2021/12/19 05:28:35;;;;;;;37.83;18.95;;;;;;;-0.55;100.00;101973.13;4994462;28;20054;-78
2021/12/19 05:31:04;;;;;;;47.15;20.30;;;;;;;-0.55;100.00;101976.66;4992412;28;20038;-78
2021/12/19 05:33:32;;;;;;;45.95;20.35;;;;;;;-0.53;100.00;101975.63;4982236;28;20050;-78
2021/12/19 05:47:07;;;;;;;53.83;21.13;;;;;;;-0.44;100.00;101953.09;4993626;28;20063;-79
2021/12/19 05:49:35;;;;;;;39.75;20.88;;;;;;;-0.45;100.00;101935.25;4976919;28;20405;-79
2021/12/19 05:52:03;;;;;;;49.92;20.23;;;;;;;-0.38;100.00;101936.28;4992385;28;20047;-78
2021/12/19 05:54:31;;;;;;;47.85;20.77;;;;;;;-0.44;100.00;101942.34;4993915;28;20157;-79
2021/12/19 05:57:00;;;;;;;48.80;21.27;;;;;;;-0.50;100.00;101938.47;4988304;28;20039;-78
2021/12/19 05:59:28;;;;;;;41.70;20.88;;;;;;;-0.41;100.00;101934.78;4976082;28;20073;-78
2021/12/19 06:01:56;;;;;;;45.75;21.23;;;;;;;-0.42;100.00;101934.94;4993260;28;20425;-78
2021/12/19 06:04:24;;;;;;;47.58;20.00;;;;;;;-0.38;100.00;101941.66;4968532;28;20057;-78
2021/12/19 06:06:52;;;;;;;45.42;20.88;;;;;;;-0.49;100.00;101925.88;4998767;28;20489;-77
2021/12/19 06:09:20;;;;;;;38.20;19.95;;;;;;;-0.52;100.00;101928.91;4996858;28;20045;-78
2021/12/19 06:11:48;;;;;;;36.20;19.08;;;;;;;-0.37;100.00;101932.56;4993695;28;20038;-78
2021/12/19 06:14:16;;;;;;;37.13;20.23;;;;;;;-0.16;100.00;101934.69;4993523;28;20054;-78
2021/12/19 06:16:44;;;;;;;45.15;21.20;;;;;;;-0.27;100.00;101926.97;4993032;28;20038;-77
2021/12/19 06:19:12;;;;;;;37.60;21.73;;;;;;;-0.31;100.00;101931.88;4992952;28;20042;-78
2021/12/19 06:21:40;;;;;;;38.60;20.08;;;;;;;-0.36;100.00;101918.09;4994142;28;20049;-78
2021/12/19 06:24:08;;;;;;;39.70;19.50;;;;;;;-0.42;100.00;101911.56;4992372;28;20050;-77
2021/12/19 06:26:37;;;;;;;38.75;18.50;;;;;;;-0.39;100.00;101909.53;4993189;28;20437;-77
2021/12/19 06:29:05;;;;;;;39.72;18.83;;;;;;;-0.35;100.00;101918.94;4993535;28;20404;-76
2021/12/19 06:31:33;;;;;;;40.58;19.80;;;;;;;-0.23;100.00;101917.56;4994448;28;20735;-77
2021/12/19 06:34:02;;;;;;;37.22;18.77;;;;;;;-0.39;100.00;101923.00;4976796;28;20050;-77
2021/12/19 06:36:30;;;;;;;38.80;18.98;;;;;;;-0.56;100.00;101913.13;4992912;28;20389;-77
2021/12/19 06:38:58;;;;;;;38.42;18.38;;;;;;;-0.66;100.00;101904.41;4984942;28;20069;-77
2021/12/19 06:41:26;;;;;;;43.10;18.60;;;;;;;-0.53;100.00;101906.56;4992970;28;20401;-77
2021/12/19 06:43:54;;;;;;;38.60;18.75;;;;;;;-0.62;100.00;101896.84;4992940;28;20058;-77
2021/12/19 06:46:23;;;;;;;41.50;18.67;;;;;;;-0.57;100.00;101900.69;4993292;28;20057;-78
2021/12/19 06:48:51;;;;;;;43.60;18.95;;;;;;;-0.57;100.00;101883.72;4992842;28;20050;-78
2021/12/19 06:51:19;;;;;;;48.65;20.02;;;;;;;-0.49;100.00;101890.94;4988466;28;20046;-78
2021/12/19 06:53:47;;;;;;;37.85;18.25;;;;;;;-0.42;100.00;101892.75;5003137;28;20404;-79
2021/12/19 06:56:16;;;;;;;45.47;21.30;;;;;;;-0.33;100.00;101904.31;4992922;28;20047;-78
2021/12/19 06:58:44;;;;;;;40.97;19.73;;;;;;;-0.44;100.00;101878.63;4992821;28;20049;-79
2021/12/19 07:01:12;;;;;;;39.25;18.65;;;;;;;-0.44;100.00;101891.25;4992692;28;20077;-79
2021/12/19 07:03:40;;;;;;;40.88;20.00;;;;;;;-0.24;100.00;101890.81;4975630;28;20053;-79
2021/12/19 07:06:08;;;;;;;37.60;18.05;;;;;;;-0.34;100.00;101875.72;4992889;28;20401;-78
2021/12/19 07:08:36;;;;;;;37.28;17.85;;;;;;;-0.42;100.00;101882.00;4992801;28;20094;-79
2021/12/19 07:11:04;;;;;;;37.65;18.48;;;;;;;-0.34;100.00;101882.97;4992007;28;20401;-79
2021/12/19 07:13:32;;;;;;;38.78;18.70;;;;;;;-0.40;100.00;101873.72;4975770;28;20065;-79
2021/12/19 07:16:00;;;;;;;42.90;19.48;;;;;;;-0.58;100.00;101871.28;4992316;28;20046;-79
2021/12/19 07:18:28;;;;;;;34.55;19.83;;;;;;;-0.46;100.00;101893.25;4990479;28;20046;-78
2021/12/19 07:20:56;;;;;;;39.80;18.95;;;;;;;-0.47;100.00;101886.19;4986522;28;20046;-79
2021/12/19 07:23:31;;;;;;;44.47;18.60;;;;;;;-0.56;100.00;101883.56;4988780;28;20508;-79
2021/12/19 07:26:00;;;;;;;38.22;20.15;;;;;;;-0.40;100.00;101876.41;4992576;28;20418;-79
2021/12/19 07:28:28;;;;;;;60.15;20.15;;;;;;;-0.26;100.00;101865.94;4992385;28;20050;-77
2021/12/19 07:30:57;;;;;;;36.83;19.42;;;;;;;-0.04;100.00;101873.22;4975327;28;20050;-78
2021/12/19 07:33:25;;;;;;;42.78;20.45;;;;;;;-0.05;100.00;101868.84;4971806;28;20047;-76
2021/12/19 07:35:55;;;;;;;39.85;19.48;;;;;;;-0.05;100.00;101858.09;4992162;28;20058;-76
2021/12/19 07:38:37;;;;;;;40.65;18.98;;;;;;;-0.09;100.00;101869.38;4992398;28;20050;-77
2021/12/19 07:41:05;;;;;;;38.13;18.10;;;;;;;-0.38;100.00;101866.34;4962236;28;20062;-77
2021/12/19 07:43:33;;;;;;;37.55;18.30;;;;;;;-0.34;100.00;101856.88;4993010;28;20114;-77
2021/12/19 07:46:01;;;;;;;40.65;18.15;;;;;;;-0.34;100.00;101872.19;4990045;28;20046;-77
2021/12/19 07:48:29;;;;;;;33.05;16.65;;;;;;;-0.35;100.00;101855.22;4986877;28;20046;-77
2021/12/19 07:50:58;;;;;;;38.50;17.55;;;;;;;-0.21;100.00;101860.84;4986640;28;20053;-77
2021/12/19 07:53:27;;;;;;;39.72;18.40;;;;;;;-0.07;100.00;101853.88;4996048;28;20046;-77
2021/12/19 07:55:55;;;;;;;38.58;17.42;;;;;;;-0.18;100.00;101860.53;4996009;28;20054;-77
2021/12/19 07:58:23;;;;;;;36.42;18.13;;;;;;;-0.12;100.00;101859.81;4978721;28;20449;-77
2021/12/19 08:00:51;;;;;;;36.90;17.95;;;;;;;-0.13;100.00;101842.00;4995725;28;20050;-78
2021/12/19 08:03:19;;;;;;;33.15;16.92;;;;;;;-0.07;100.00;101838.59;4978622;28;20061;-77
2021/12/19 08:05:48;;;;;;;32.58;16.33;;;;;;;0.08;100.00;101852.13;4995571;28;20046;-77
2021/12/19 08:08:21;;;;;;;35.25;17.65;;;;;;;0.11;100.00;101846.38;4982102;28;20042;-77
2021/12/19 08:13:17;;;;;;;34.60;16.35;;;;;;;-0.29;100.00;101841.06;5009625;28;20061;-77
2021/12/19 08:15:45;;;;;;;44.53;18.52;;;;;;;-0.15;100.00;101838.63;4998419;28;20042;-77
2021/12/19 08:18:13;;;;;;;47.22;17.38;;;;;;;-0.01;100.00;101842.41;4995552;28;20050;-77
2021/12/19 08:20:41;;;;;;;39.53;17.25;;;;;;;-0.12;100.00;101838.28;4995507;28;20065;-77
2021/12/19 08:23:09;;;;;;;41.05;17.05;;;;;;;-0.06;100.00;101831.34;4988050;28;20039;-77
2021/12/19 08:25:37;;;;;;;45.22;17.85;;;;;;;0.01;100.00;101826.09;4995762;28;20042;-76
2021/12/19 08:28:05;;;;;;;35.20;16.90;;;;;;;-0.18;100.00;101833.59;4977705;28;20413;-77
2021/12/19 08:30:33;;;;;;;35.92;16.70;;;;;;;0.01;100.00;101837.72;4978888;28;20049;-76
2021/12/19 08:33:01;;;;;;;34.90;16.77;;;;;;;0.03;100.00;101834.81;4968841;28;20050;-77
2021/12/19 08:35:29;;;;;;;31.17;16.55;;;;;;;-0.06;100.00;101834.88;4981890;28;20047;-76
2021/12/19 08:37:57;;;;;;;41.75;16.77;;;;;;;-0.14;100.00;101835.75;4995594;28;20477;-77
2021/12/19 08:40:27;;;;;;;39.90;17.38;;;;;;;-0.04;100.00;101835.53;4994955;28;20050;-78
2021/12/19 08:42:57;;;;;;;53.58;23.70;;;;;;;-0.21;100.00;101815.13;4995500;28;20046;-76
2021/12/19 08:45:26;;;;;;;134.02;40.20;;;;;;;-0.24;100.00;101826.25;4956271;28;20490;-76
2021/12/19 08:47:54;;;;;;;43.45;19.80;;;;;;;-0.36;100.00;101805.13;4955399;28;20051;-77
2021/12/19 08:50:23;;;;;;;43.10;19.55;;;;;;;-0.01;100.00;101818.19;4956431;28;20627;-77
2021/12/19 08:52:52;;;;;;;153.50;46.58;;;;;;;-0.02;100.00;101803.06;4956516;28;20039;-77
2021/12/19 08:55:21;;;;;;;50.33;21.00;;;;;;;0.02;100.00;101788.25;4948521;28;20048;-77
2021/12/19 08:57:49;;;;;;;76.00;31.48;;;;;;;0.58;100.00;101805.94;4954796;28;20066;-77
2021/12/19 09:00:18;;;;;;;45.85;18.85;;;;;;;0.66;100.00;101796.94;4956286;29;20379;-77
2021/12/19 09:02:50;;;;;;;33.88;16.65;;;;;;;0.41;100.00;101805.28;4954178;28;20058;-77
2021/12/19 09:05:20;;;;;;;30.85;16.80;;;;;;;0.48;100.00;101816.13;4956328;29;20086;-76
2021/12/19 09:07:50;;;;;;;46.78;20.90;;;;;;;0.76;100.00;101794.00;4956178;28;20055;-76
2021/12/19 09:10:19;;;;;;;116.20;32.33;;;;;;;0.94;100.00;101793.66;4947297;28;20055;-78
2021/12/19 09:12:49;;;;;;;127.18;38.22;;;;;;;0.80;100.00;101815.00;4956058;28;20054;-78
2021/12/19 09:15:18;;;;;;;50.67;21.80;;;;;;;0.80;100.00;101811.47;4947948;29;20043;-77
2021/12/19 09:17:47;;;;;;;38.20;16.33;;;;;;;0.26;100.00;101807.91;4950689;28;20639;-78
2021/12/19 09:20:16;;;;;;;33.90;16.42;;;;;;;0.20;100.00;101814.03;4955986;29;20048;-77
2021/12/19 09:22:44;;;;;;;37.78;17.08;;;;;;;0.00;100.00;101792.97;4953794;28;20058;-78
2021/12/19 09:25:19;;;;;;;40.10;18.50;;;;;;;0.24;100.00;101797.31;4942982;28;20054;-78
2021/12/19 09:27:48;;;;;;;44.05;17.05;;;;;;;0.21;100.00;101804.91;4955723;28;20646;-79
2021/12/19 09:30:17;;;;;;;34.30;17.25;;;;;;;0.20;100.00;101801.38;4954784;28;20063;-78
2021/12/19 09:32:45;;;;;;;35.28;16.67;;;;;;;0.47;100.00;101801.84;4949082;28;20058;-79
2021/12/19 09:35:14;;;;;;;33.15;17.40;;;;;;;0.36;100.00;101786.97;4964625;28;20490;-79
2021/12/19 09:37:43;;;;;;;32.47;16.45;;;;;;;0.42;100.00;101793.47;4956543;28;20058;-77
2021/12/19 09:40:18;;;;;;;36.08;18.58;;;;;;;0.44;100.00;101777.94;4955200;28;20506;-78
2021/12/19 09:42:49;;;;;;;34.33;16.95;;;;;;;0.42;100.00;101780.00;4949291;28;20050;-78
2021/12/19 09:45:19;;;;;;;32.85;17.63;;;;;;;0.91;100.00;101769.75;4991828;28;20637;-77
2021/12/19 09:47:48;;;;;;;39.28;18.58;;;;;;;0.93;100.00;101760.44;4976489;28;20049;-78
2021/12/19 09:50:16;;;;;;;34.08;16.92;;;;;;;0.84;100.00;101772.38;4993703;28;20397;-78
2021/12/19 09:52:45;;;;;;;32.55;16.02;;;;;;;0.66;100.00;101768.16;4993761;28;20481;-78
2021/12/19 09:55:19;;;;;;;37.03;17.38;;;;;;;0.55;100.00;101765.06;4992872;28;20042;-79
2021/12/19 09:57:50;;;;;;;38.03;18.02;;;;;;;0.72;100.00;101752.25;4993482;28;20043;-79
2021/12/19 10:00:19;;;;;;;31.75;18.33;;;;;;;0.89;100.00;101767.22;4993558;28;20504;-78
2021/12/19 10:02:47;;;;;;;36.10;18.70;;;;;;;0.76;100.00;101757.13;4993548;28;20050;-77
2021/12/19 10:05:20;;;;;;;32.78;17.08;;;;;;;0.61;100.00;101756.25;4992886;28;20050;-77
2021/12/19 10:07:50;;;;;;;89.68;43.50;;;;;;;0.72;100.00;101746.88;4994905;28;20046;-77
2021/12/19 10:10:26;;;;;;;37.83;19.90;;;;;;;0.73;100.00;101730.53;5008414;28;20061;-77
2021/12/19 10:12:58;;;;;;;33.35;17.88;;;;;;;0.74;100.00;101729.50;4994931;28;20547;-77
2021/12/19 10:15:38;;;;;;;38.03;18.33;;;;;;;0.66;100.00;101730.44;4993904;28;20039;-77
2021/12/19 10:18:07;;;;;;;39.80;19.30;;;;;;;0.60;100.00;101733.03;4993592;28;20128;-78
2021/12/19 10:20:45;;;;;;;40.90;19.25;;;;;;;0.50;100.00;101733.31;4993535;28;20042;-78
2021/12/19 10:23:17;;;;;;;45.78;20.05;;;;;;;0.54;100.00;101718.47;4976349;28;20082;-78
2021/12/19 10:25:56;;;;;;;41.45;19.33;;;;;;;0.44;100.00;101724.09;4993605;28;20050;-78
2021/12/19 10:28:24;;;;;;;52.42;19.63;;;;;;;0.36;100.00;101719.66;4993574;28;20061;-78
2021/12/19 10:30:52;;;;;;;36.15;19.23;;;;;;;0.30;100.00;101708.75;4975999;28;20049;-77
2021/12/19 10:33:25;;;;;;;50.05;17.65;;;;;;;0.27;100.00;101701.88;4993360;28;20362;-79
2021/12/19 10:35:57;;;;;;;40.63;18.67;;;;;;;0.30;100.00;101689.91;4993467;28;20496;-77
2021/12/19 10:38:32;;;;;;;47.45;20.92;;;;;;;0.40;100.00;101679.72;4976148;28;20046;-77
2021/12/19 10:41:12;;;;;;;43.08;19.33;;;;;;;0.60;100.00;101689.94;4979706;28;20400;-78
2021/12/19 10:43:59;;;;;;;37.78;18.60;;;;;;;0.56;100.00;101678.69;4992795;28;20595;-77
2021/12/19 10:46:34;;;;;;;41.40;20.95;;;;;;;0.83;100.00;101689.81;4993097;28;20050;-77
2021/12/19 10:49:04;;;;;;;38.88;18.95;;;;;;;0.69;100.00;101682.59;4992953;28;20417;-77
2021/12/19 10:51:39;;;;;;;37.88;17.95;;;;;;;0.40;100.00;101674.31;4992971;28;20065;-77
2021/12/19 10:54:07;;;;;;;;;;;;;;;0.58;100.00;101675.81;4993209;28;20046;-77
2021/12/19 10:56:37;;;;;;;37.83;17.38;;;;;;;0.38;100.00;101661.03;4992868;28;19932;-77
2021/12/19 10:59:08;;;;;;;39.53;18.92;;;;;;;0.56;100.00;101653.59;4992893;28;20050;-78
2021/12/19 11:01:45;;;;;;;39.92;18.50;;;;;;;0.41;100.00;101649.06;4975672;28;20409;-78
2021/12/19 11:04:16;;;;;;;35.03;18.13;;;;;;;0.25;100.00;101656.28;4992769;28;20057;-77
2021/12/19 11:06:52;;;;;;;36.63;20.13;;;;;;;0.37;100.00;101653.97;4992153;28;20042;-77
2021/12/19 11:09:37;;;;;;;40.83;19.55;;;;;;;0.63;100.00;101658.06;4975535;28;20053;-77
2021/12/19 11:12:06;;;;;;;;;;;;;;;0.59;100.00;101629.00;4993136;28;20524;-77
2021/12/19 11:14:47;;;;;;;39.50;18.65;;;;;;;0.80;100.00;101622.84;4992603;28;19926;-77
2021/12/19 11:17:20;;;;;;;41.10;20.75;;;;;;;0.96;100.00;101616.38;4992228;28;20043;-78
2021/12/19 11:19:51;;;;;;;35.22;18.73;;;;;;;1.03;100.00;101614.59;4992419;28;20415;-78
2021/12/19 11:22:25;;;;;;;35.67;19.88;;;;;;;1.19;100.00;101615.38;4992548;28;20058;-78
2021/12/19 11:24:58;;;;;;;36.40;18.73;;;;;;;1.05;100.00;101615.25;4974608;28;20054;-78
2021/12/19 11:27:28;;;;;;;42.75;20.38;;;;;;;0.71;100.00;101603.25;4959601;28;20038;-78
2021/12/19 11:29:58;;;;;;;44.53;19.98;;;;;;;0.80;100.00;101610.16;4992667;28;20051;-78
2021/12/19 11:32:37;;;;;;;40.47;18.98;;;;;;;0.75;100.00;101598.31;4992558;28;20050;-77
2021/12/19 11:35:05;;;;;;;39.35;17.92;;;;;;;0.82;100.00;101601.09;4979810;28;20517;-77
2021/12/19 11:37:39;;;;;;;37.03;19.23;;;;;;;0.64;100.00;101578.09;4991251;28;20039;-78
2021/12/19 11:40:09;;;;;;;41.42;19.17;;;;;;;0.82;100.00;101580.34;4974334;28;20042;-79
2021/12/19 11:42:41;;;;;;;45.75;21.23;;;;;;;0.96;100.00;101585.88;4991908;28;20038;-77
2021/12/19 11:45:27;;;;;;;46.65;21.02;;;;;;;1.38;100.00;101580.72;4974930;28;20050;-76
2021/12/19 11:48:01;;;;;;;43.88;20.85;;;;;;;1.16;100.00;101569.91;4987879;28;20054;-79
2021/12/19 11:50:32;;;;;;;45.60;23.63;;;;;;;1.42;100.00;101568.50;4990879;28;20050;-78
2021/12/19 11:53:04;;;;;;;42.05;19.48;;;;;;;1.18;100.00;101573.28;4970912;28;20054;-78
2021/12/19 11:55:44;;;;;;;35.47;19.38;;;;;;;1.01;100.00;101561.88;4994693;28;20061;-79
2021/12/19 11:58:12;;;;;;;36.72;19.40;;;;;;;1.15;100.00;101557.47;4974776;28;20039;-78
2021/12/19 12:00:50;;;;;;;40.60;19.30;;;;;;;0.92;100.00;101550.38;4987823;28;20055;-76
2021/12/19 12:03:21;;;;;;;39.13;19.95;;;;;;;0.91;100.00;101552.25;4986227;28;20057;-78
2021/12/19 12:05:51;;;;;;;56.92;24.98;;;;;;;1.01;100.00;101551.09;4992870;28;20047;-79
2021/12/19 12:08:25;;;;;;;42.95;20.33;;;;;;;1.01;100.00;101538.47;4991988;28;20046;-79
2021/12/19 12:11:13;;;;;;;43.47;19.48;;;;;;;0.74;100.00;101519.31;4991215;28;20436;-79
2021/12/19 12:13:42;;;;;;;40.58;21.02;;;;;;;0.65;100.00;101532.06;4978967;28;20054;-79
2021/12/19 12:18:42;;;;;;;50.42;24.13;;;;;;;0.93;100.00;101525.94;4981823;28;20065;-79
2021/12/19 12:21:21;;;;;;;41.55;20.65;;;;;;;0.87;100.00;101534.78;4988726;28;20062;-78
2021/12/19 12:24:11;;;;;;;41.33;20.65;;;;;;;0.70;100.00;101518.03;4991416;28;20049;-79
2021/12/19 12:26:53;;;;;;;41.05;20.15;;;;;;;0.89;100.00;101521.13;4991759;28;20057;-80
2021/12/19 12:29:22;;;;;;;43.50;20.45;;;;;;;0.90;100.00;101503.94;4993062;28;20050;-78